sensor_id;sensor_type;location;lat;lon;timestamp;temperature;humidity
5226;DHT22;2632;51.666;7.146;2022-09-09T00:01:32;22.00;85.10
5226;DHT22;2632;51.666;7.146;2022-09-09T00:14:56;21.60;83.00
5226;DHT22;2632;51.666;7.146;2022-09-09T00:17:45;21.60;83.00
5226;DHT22;2632;51.666;7.146;2022-09-09T00:20:24;21.50;83.60
5226;DHT22;2632;51.666;7.146;2022-09-09T00:23:04;21.70;83.30
5226;DHT22;2632;51.666;7.146;2022-09-09T00:28:25;21.30;84.50
5226;DHT22;2632;51.666;7.146;2022-09-09T00:30:53;21.70;83.60
5226;DHT22;2632;51.666;7.146;2022-09-09T00:33:23;21.60;83.60
5226;DHT22;2632;51.666;7.146;2022-09-09T00:35:57;21.60;83.50
5226;DHT22;2632;51.666;7.146;2022-09-09T00:38:38;21.30;83.60
5226;DHT22;2632;51.666;7.146;2022-09-09T00:44:33;21.50;83.50
5226;DHT22;2632;51.666;7.146;2022-09-09T00:57:36;21.50;83.60
5226;DHT22;2632;51.666;7.146;2022-09-09T01:08:52;21.40;83.70
5226;DHT22;2632;51.666;7.146;2022-09-09T01:11:26;21.50;83.70
5226;DHT22;2632;51.666;7.146;2022-09-09T01:14:30;21.50;83.70
5226;DHT22;2632;51.666;7.146;2022-09-09T01:17:31;21.50;83.70
5226;DHT22;2632;51.666;7.146;2022-09-09T01:20:15;21.40;83.60
5226;DHT22;2632;51.666;7.146;2022-09-09T01:22:52;21.40;83.60
5226;DHT22;2632;51.666;7.146;2022-09-09T01:28:28;21.40;83.60
5226;DHT22;2632;51.666;7.146;2022-09-09T01:30:56;21.40;83.60
5226;DHT22;2632;51.666;7.146;2022-09-09T01:33:23;21.40;83.60
5226;DHT22;2632;51.666;7.146;2022-09-09T01:35:55;21.40;83.60
5226;DHT22;2632;51.666;7.146;2022-09-09T01:38:24;21.40;83.70
5226;DHT22;2632;51.666;7.146;2022-09-09T01:40:52;21.40;83.70
5226;DHT22;2632;51.666;7.146;2022-09-09T01:43:22;21.40;83.80
5226;DHT22;2632;51.666;7.146;2022-09-09T01:45:53;21.40;83.80
5226;DHT22;2632;51.666;7.146;2022-09-09T01:48:22;21.40;83.90
5226;DHT22;2632;51.666;7.146;2022-09-09T01:50:49;21.40;83.90
5226;DHT22;2632;51.666;7.146;2022-09-09T01:53:18;21.40;83.80
5226;DHT22;2632;51.666;7.146;2022-09-09T02:01:40;21.40;84.00
5226;DHT22;2632;51.666;7.146;2022-09-09T02:06:56;21.40;84.00
5226;DHT22;2632;51.666;7.146;2022-09-09T02:09:24;21.30;84.50
5226;DHT22;2632;51.666;7.146;2022-09-09T02:12:07;21.30;84.00
5226;DHT22;2632;51.666;7.146;2022-09-09T02:14:40;21.30;84.00
5226;DHT22;2632;51.666;7.146;2022-09-09T02:17:10;21.30;84.10
5226;DHT22;2632;51.666;7.146;2022-09-09T02:19:41;21.30;84.10
5226;DHT22;2632;51.666;7.146;2022-09-09T02:22:11;21.40;84.20
5226;DHT22;2632;51.666;7.146;2022-09-09T02:24:39;21.30;84.10
5226;DHT22;2632;51.666;7.146;2022-09-09T02:27:08;21.30;84.20
5226;DHT22;2632;51.666;7.146;2022-09-09T02:29:39;21.30;84.20
5226;DHT22;2632;51.666;7.146;2022-09-09T02:32:20;21.30;84.20
5226;DHT22;2632;51.666;7.146;2022-09-09T02:34:55;21.30;84.10
5226;DHT22;2632;51.666;7.146;2022-09-09T02:37:27;21.30;85.30
5226;DHT22;2632;51.666;7.146;2022-09-09T02:39:55;21.30;84.20
5226;DHT22;2632;51.666;7.146;2022-09-09T02:42:22;21.30;84.70
5226;DHT22;2632;51.666;7.146;2022-09-09T02:44:50;21.30;84.30
5226;DHT22;2632;51.666;7.146;2022-09-09T02:47:38;21.30;84.30
5226;DHT22;2632;51.666;7.146;2022-09-09T02:50:09;21.30;84.40
5226;DHT22;2632;51.666;7.146;2022-09-09T02:56:09;21.30;84.20
5226;DHT22;2632;51.666;7.146;2022-09-09T02:58:40;21.30;84.30
5226;DHT22;2632;51.666;7.146;2022-09-09T03:01:07;21.30;84.40
5226;DHT22;2632;51.666;7.146;2022-09-09T03:03:35;21.30;84.40
5226;DHT22;2632;51.666;7.146;2022-09-09T03:06:02;21.30;85.00
5226;DHT22;2632;51.666;7.146;2022-09-09T03:08:28;21.30;84.50
5226;DHT22;2632;51.666;7.146;2022-09-09T03:10:55;21.30;84.60
5226;DHT22;2632;51.666;7.146;2022-09-09T03:13:24;21.30;84.60
5226;DHT22;2632;51.666;7.146;2022-09-09T03:15:51;21.30;85.20
5226;DHT22;2632;51.666;7.146;2022-09-09T03:18:18;21.30;84.70
5226;DHT22;2632;51.666;7.146;2022-09-09T03:20:46;21.30;85.30
5226;DHT22;2632;51.666;7.146;2022-09-09T03:23:15;21.30;84.80
5226;DHT22;2632;51.666;7.146;2022-09-09T03:25:48;21.30;85.30
5226;DHT22;2632;51.666;7.146;2022-09-09T03:30:42;21.30;84.80
5226;DHT22;2632;51.666;7.146;2022-09-09T03:35:36;21.30;84.80
5226;DHT22;2632;51.666;7.146;2022-09-09T03:38:02;21.30;85.40
5226;DHT22;2632;51.666;7.146;2022-09-09T03:40:29;21.20;84.80
5226;DHT22;2632;51.666;7.146;2022-09-09T03:42:57;21.30;85.40
5226;DHT22;2632;51.666;7.146;2022-09-09T03:45:23;21.20;85.40
5226;DHT22;2632;51.666;7.146;2022-09-09T03:47:50;21.20;84.90
5226;DHT22;2632;51.666;7.146;2022-09-09T03:50:17;21.20;85.50
5226;DHT22;2632;51.666;7.146;2022-09-09T03:52:44;21.20;85.00
5226;DHT22;2632;51.666;7.146;2022-09-09T03:55:12;21.20;85.60
5226;DHT22;2632;51.666;7.146;2022-09-09T03:57:38;21.20;85.10
5226;DHT22;2632;51.666;7.146;2022-09-09T04:00:07;21.20;85.70
5226;DHT22;2632;51.666;7.146;2022-09-09T04:02:34;21.20;85.10
5226;DHT22;2632;51.666;7.146;2022-09-09T04:05:00;21.20;85.10
5226;DHT22;2632;51.666;7.146;2022-09-09T04:07:27;21.20;85.10
5226;DHT22;2632;51.666;7.146;2022-09-09T04:09:54;21.20;85.10
5226;DHT22;2632;51.666;7.146;2022-09-09T04:12:20;21.10;85.00
5226;DHT22;2632;51.666;7.146;2022-09-09T04:14:48;21.10;85.60
5226;DHT22;2632;51.666;7.146;2022-09-09T04:17:15;21.20;85.00
5226;DHT22;2632;51.666;7.146;2022-09-09T04:19:42;21.10;85.00
5226;DHT22;2632;51.666;7.146;2022-09-09T04:22:09;21.20;85.60
5226;DHT22;2632;51.666;7.146;2022-09-09T04:24:36;21.10;85.10
5226;DHT22;2632;51.666;7.146;2022-09-09T04:27:02;21.10;85.20
5226;DHT22;2632;51.666;7.146;2022-09-09T04:29:29;21.20;85.80
5226;DHT22;2632;51.666;7.146;2022-09-09T04:31:55;21.10;85.20
5226;DHT22;2632;51.666;7.146;2022-09-09T04:34:22;21.10;85.20
5226;DHT22;2632;51.666;7.146;2022-09-09T04:36:48;21.10;85.10
5226;DHT22;2632;51.666;7.146;2022-09-09T04:39:15;21.10;85.10
5226;DHT22;2632;51.666;7.146;2022-09-09T04:41:42;21.10;85.10
5226;DHT22;2632;51.666;7.146;2022-09-09T04:44:08;21.10;85.20
5226;DHT22;2632;51.666;7.146;2022-09-09T04:46:36;20.10;88.20
5226;DHT22;2632;51.666;7.146;2022-09-09T04:49:02;19.00;91.20
5226;DHT22;2632;51.666;7.146;2022-09-09T04:51:29;18.50;92.40
5226;DHT22;2632;51.666;7.146;2022-09-09T04:53:57;18.00;93.50
5226;DHT22;2632;51.666;7.146;2022-09-09T04:56:24;17.90;93.90
5226;DHT22;2632;51.666;7.146;2022-09-09T05:01:21;18.00;93.80
5226;DHT22;2632;51.666;7.146;2022-09-09T05:03:48;18.00;93.60
5226;DHT22;2632;51.666;7.146;2022-09-09T05:06:17;18.00;93.80
5226;DHT22;2632;51.666;7.146;2022-09-09T05:08:45;17.90;93.90
5226;DHT22;2632;51.666;7.146;2022-09-09T05:11:28;18.10;93.60
5226;DHT22;2632;51.666;7.146;2022-09-09T05:13:56;18.10;93.80
5226;DHT22;2632;51.666;7.146;2022-09-09T05:16:23;18.10;93.30
5226;DHT22;2632;51.666;7.146;2022-09-09T05:18:50;18.10;93.50
5226;DHT22;2632;51.666;7.146;2022-09-09T05:21:19;18.10;93.70
5226;DHT22;2632;51.666;7.146;2022-09-09T05:23:46;18.80;92.50
5226;DHT22;2632;51.666;7.146;2022-09-09T05:26:15;19.50;91.20
5226;DHT22;2632;51.666;7.146;2022-09-09T05:28:44;19.80;90.50
5226;DHT22;2632;51.666;7.146;2022-09-09T05:31:12;19.80;90.90
5226;DHT22;2632;51.666;7.146;2022-09-09T05:33:41;20.20;89.20
5226;DHT22;2632;51.666;7.146;2022-09-09T05:36:11;20.30;88.70
5226;DHT22;2632;51.666;7.146;2022-09-09T05:38:41;20.50;88.00
5226;DHT22;2632;51.666;7.146;2022-09-09T05:41:09;20.50;87.60
5226;DHT22;2632;51.666;7.146;2022-09-09T05:43:38;20.60;87.30
5226;DHT22;2632;51.666;7.146;2022-09-09T05:46:06;20.60;87.80
5226;DHT22;2632;51.666;7.146;2022-09-09T05:48:36;20.70;86.80
5226;DHT22;2632;51.666;7.146;2022-09-09T05:51:05;20.80;86.60
5226;DHT22;2632;51.666;7.146;2022-09-09T05:53:33;20.80;86.40
5226;DHT22;2632;51.666;7.146;2022-09-09T05:56:07;20.90;86.40
5226;DHT22;2632;51.666;7.146;2022-09-09T05:58:37;20.90;86.10
5226;DHT22;2632;51.666;7.146;2022-09-09T06:01:09;21.00;86.10
5226;DHT22;2632;51.666;7.146;2022-09-09T06:03:39;21.00;85.90
5226;DHT22;2632;51.666;7.146;2022-09-09T06:06:08;21.00;86.50
5226;DHT22;2632;51.666;7.146;2022-09-09T06:08:36;21.00;85.70
5226;DHT22;2632;51.666;7.146;2022-09-09T06:11:08;21.00;85.70
5226;DHT22;2632;51.666;7.146;2022-09-09T06:13:35;21.00;85.60
5226;DHT22;2632;51.666;7.146;2022-09-09T06:16:03;21.10;85.60
5226;DHT22;2632;51.666;7.146;2022-09-09T06:18:30;21.10;85.40
5226;DHT22;2632;51.666;7.146;2022-09-09T06:21:02;21.30;85.50
5226;DHT22;2632;51.666;7.146;2022-09-09T06:23:30;21.10;85.20
5226;DHT22;2632;51.666;7.146;2022-09-09T06:26:18;21.10;85.20
5226;DHT22;2632;51.666;7.146;2022-09-09T06:28:46;21.10;85.10
5226;DHT22;2632;51.666;7.146;2022-09-09T06:31:16;21.20;85.10
5226;DHT22;2632;51.666;7.146;2022-09-09T06:33:54;21.20;85.10
5226;DHT22;2632;51.666;7.146;2022-09-09T06:36:30;21.10;87.00
5226;DHT22;2632;51.666;7.146;2022-09-09T06:38:58;21.20;85.40
5226;DHT22;2632;51.666;7.146;2022-09-09T06:41:27;21.30;84.90
5226;DHT22;2632;51.666;7.146;2022-09-09T06:43:54;21.20;84.90
5226;DHT22;2632;51.666;7.146;2022-09-09T06:46:27;21.50;85.10
5226;DHT22;2632;51.666;7.146;2022-09-09T06:48:55;21.30;85.00
5226;DHT22;2632;51.666;7.146;2022-09-09T06:51:23;21.30;84.70
5226;DHT22;2632;51.666;7.146;2022-09-09T06:53:52;21.20;84.60
5226;DHT22;2632;51.666;7.146;2022-09-09T06:56:24;21.20;84.60
5226;DHT22;2632;51.666;7.146;2022-09-09T06:58:52;21.40;85.00
5226;DHT22;2632;51.666;7.146;2022-09-09T07:01:21;21.30;84.50
5226;DHT22;2632;51.666;7.146;2022-09-09T07:03:50;21.30;84.60
5226;DHT22;2632;51.666;7.146;2022-09-09T07:08:57;21.30;84.50
5226;DHT22;2632;51.666;7.146;2022-09-09T07:11:27;21.30;84.50
5226;DHT22;2632;51.666;7.146;2022-09-09T07:13:56;21.30;84.30
5226;DHT22;2632;51.666;7.146;2022-09-09T07:16:23;21.60;84.60
5226;DHT22;2632;51.666;7.146;2022-09-09T07:18:52;21.30;84.40
5226;DHT22;2632;51.666;7.146;2022-09-09T07:21:19;21.40;84.40
5226;DHT22;2632;51.666;7.146;2022-09-09T07:23:47;21.40;84.40
5226;DHT22;2632;51.666;7.146;2022-09-09T07:26:16;21.00;85.60
5226;DHT22;2632;51.666;7.146;2022-09-09T07:28:43;20.40;88.10
5226;DHT22;2632;51.666;7.146;2022-09-09T07:31:14;20.10;89.30
5226;DHT22;2632;51.666;7.146;2022-09-09T07:36:16;20.00;89.70
5226;DHT22;2632;51.666;7.146;2022-09-09T07:38:48;20.00;90.00
5226;DHT22;2632;51.666;7.146;2022-09-09T07:41:22;20.00;89.80
5226;DHT22;2632;51.666;7.146;2022-09-09T07:43:50;19.90;90.00
5226;DHT22;2632;51.666;7.146;2022-09-09T07:46:18;19.90;90.20
5226;DHT22;2632;51.666;7.146;2022-09-09T07:48:47;19.90;90.30
5226;DHT22;2632;51.666;7.146;2022-09-09T07:51:29;19.70;90.80
5226;DHT22;2632;51.666;7.146;2022-09-09T07:54:04;19.70;90.80
5226;DHT22;2632;51.666;7.146;2022-09-09T07:56:31;19.70;90.50
5226;DHT22;2632;51.666;7.146;2022-09-09T07:58:59;19.80;90.40
5226;DHT22;2632;51.666;7.146;2022-09-09T08:01:31;19.90;90.40
5226;DHT22;2632;51.666;7.146;2022-09-09T08:04:00;19.80;90.30
5226;DHT22;2632;51.666;7.146;2022-09-09T08:06:30;19.90;90.50
5226;DHT22;2632;51.666;7.146;2022-09-09T08:08:56;20.10;90.10
5226;DHT22;2632;51.666;7.146;2022-09-09T08:11:25;20.20;89.50
5226;DHT22;2632;51.666;7.146;2022-09-09T08:13:52;20.30;89.20
5226;DHT22;2632;51.666;7.146;2022-09-09T08:16:25;20.30;88.40
5226;DHT22;2632;51.666;7.146;2022-09-09T08:18:53;20.30;88.00
5226;DHT22;2632;51.666;7.146;2022-09-09T08:21:27;20.10;86.90
5226;DHT22;2632;51.666;7.146;2022-09-09T08:23:56;20.10;87.30
5226;DHT22;2632;51.666;7.146;2022-09-09T08:26:32;20.20;87.40
5226;DHT22;2632;51.666;7.146;2022-09-09T08:29:02;20.20;87.90
5226;DHT22;2632;51.666;7.146;2022-09-09T08:31:40;20.60;86.90
5226;DHT22;2632;51.666;7.146;2022-09-09T08:34:07;20.60;86.80
5226;DHT22;2632;51.666;7.146;2022-09-09T08:36:40;20.80;86.30
5226;DHT22;2632;51.666;7.146;2022-09-09T08:39:10;20.90;86.10
5226;DHT22;2632;51.666;7.146;2022-09-09T08:48:23;21.10;85.50
5226;DHT22;2632;51.666;7.146;2022-09-09T08:50:56;21.10;85.40
5226;DHT22;2632;51.666;7.146;2022-09-09T08:53:33;21.10;85.20
5226;DHT22;2632;51.666;7.146;2022-09-09T08:56:11;21.10;85.10
5226;DHT22;2632;51.666;7.146;2022-09-09T08:58:59;21.20;85.00
5226;DHT22;2632;51.666;7.146;2022-09-09T09:01:43;21.20;84.90
5226;DHT22;2632;51.666;7.146;2022-09-09T09:07:39;21.30;84.80
5226;DHT22;2632;51.666;7.146;2022-09-09T09:13:17;21.30;84.70
5226;DHT22;2632;51.666;7.146;2022-09-09T09:15:49;21.30;84.60
5226;DHT22;2632;51.666;7.146;2022-09-09T09:18:17;21.30;85.10
5226;DHT22;2632;51.666;7.146;2022-09-09T09:21:21;21.20;84.40
5226;DHT22;2632;51.666;7.146;2022-09-09T09:23:57;21.30;83.90
5226;DHT22;2632;51.666;7.146;2022-09-09T09:26:30;21.30;84.10
5226;DHT22;2632;51.666;7.146;2022-09-09T09:28:59;21.40;84.10
5226;DHT22;2632;51.666;7.146;2022-09-09T09:31:27;21.40;84.10
5226;DHT22;2632;51.666;7.146;2022-09-09T09:33:55;21.40;81.90
5226;DHT22;2632;51.666;7.146;2022-09-09T09:36:25;21.40;81.70
5226;DHT22;2632;51.666;7.146;2022-09-09T09:39:01;21.30;81.00
5226;DHT22;2632;51.666;7.146;2022-09-09T09:41:48;21.20;80.80
5226;DHT22;2632;51.666;7.146;2022-09-09T09:44:32;21.20;80.50
5226;DHT22;2632;51.666;7.146;2022-09-09T09:49:37;21.30;80.80
5226;DHT22;2632;51.666;7.146;2022-09-09T09:52:05;21.30;80.40
5226;DHT22;2632;51.666;7.146;2022-09-09T09:54:39;21.30;79.30
5226;DHT22;2632;51.666;7.146;2022-09-09T09:57:09;21.30;79.30
5226;DHT22;2632;51.666;7.146;2022-09-09T09:59:37;21.30;79.50
5226;DHT22;2632;51.666;7.146;2022-09-09T10:04:47;21.30;78.70
5226;DHT22;2632;51.666;7.146;2022-09-09T10:07:19;21.30;79.00
5226;DHT22;2632;51.666;7.146;2022-09-09T10:09:54;21.40;79.10
5226;DHT22;2632;51.666;7.146;2022-09-09T10:18:13;21.40;78.60
5226;DHT22;2632;51.666;7.146;2022-09-09T10:21:11;21.40;78.60
5226;DHT22;2632;51.666;7.146;2022-09-09T10:26:27;21.40;77.70
5226;DHT22;2632;51.666;7.146;2022-09-09T10:34:58;21.30;78.20
5226;DHT22;2632;51.666;7.146;2022-09-09T10:37:44;21.30;77.80
5226;DHT22;2632;51.666;7.146;2022-09-09T10:40:43;21.30;78.00
5226;DHT22;2632;51.666;7.146;2022-09-09T10:43:54;21.30;77.60
5226;DHT22;2632;51.666;7.146;2022-09-09T10:55:13;21.50;78.30
5226;DHT22;2632;51.666;7.146;2022-09-09T10:57:48;21.60;77.80
5226;DHT22;2632;51.666;7.146;2022-09-09T11:00:21;21.50;78.20
5226;DHT22;2632;51.666;7.146;2022-09-09T11:03:25;21.70;77.50
5226;DHT22;2632;51.666;7.146;2022-09-09T11:05:56;21.70;76.80
5226;DHT22;2632;51.666;7.146;2022-09-09T11:08:29;21.70;76.50
5226;DHT22;2632;51.666;7.146;2022-09-09T11:11:18;21.60;76.00
5226;DHT22;2632;51.666;7.146;2022-09-09T11:16:21;21.50;76.80
5226;DHT22;2632;51.666;7.146;2022-09-09T11:18:48;21.40;76.00
5226;DHT22;2632;51.666;7.146;2022-09-09T11:21:45;21.40;76.50
5226;DHT22;2632;51.666;7.146;2022-09-09T11:24:26;21.40;77.10
5226;DHT22;2632;51.666;7.146;2022-09-09T11:27:00;21.30;76.60
5226;DHT22;2632;51.666;7.146;2022-09-09T11:34:45;21.30;76.60
5226;DHT22;2632;51.666;7.146;2022-09-09T11:40:07;21.20;75.80
5226;DHT22;2632;51.666;7.146;2022-09-09T11:42:36;21.20;75.80
5226;DHT22;2632;51.666;7.146;2022-09-09T11:45:31;21.20;75.80
5226;DHT22;2632;51.666;7.146;2022-09-09T11:47:58;21.10;76.00
5226;DHT22;2632;51.666;7.146;2022-09-09T11:53:04;21.10;76.00
5226;DHT22;2632;51.666;7.146;2022-09-09T11:55:34;21.10;75.70
5226;DHT22;2632;51.666;7.146;2022-09-09T12:05:58;21.30;75.90
5226;DHT22;2632;51.666;7.146;2022-09-09T12:08:27;21.30;76.30
5226;DHT22;2632;51.666;7.146;2022-09-09T12:10:59;21.30;75.70
5226;DHT22;2632;51.666;7.146;2022-09-09T12:13:29;21.30;75.70
5226;DHT22;2632;51.666;7.146;2022-09-09T12:15:59;21.30;75.90
5226;DHT22;2632;51.666;7.146;2022-09-09T12:18:35;21.30;77.20
5226;DHT22;2632;51.666;7.146;2022-09-09T12:21:33;21.10;78.30
5226;DHT22;2632;51.666;7.146;2022-09-09T12:24:10;21.00;79.80
5226;DHT22;2632;51.666;7.146;2022-09-09T12:26:46;20.90;80.20
5226;DHT22;2632;51.666;7.146;2022-09-09T12:32:07;20.80;82.60
5226;DHT22;2632;51.666;7.146;2022-09-09T12:35:00;20.60;85.80
5226;DHT22;2632;51.666;7.146;2022-09-09T12:37:35;20.40;87.40
5226;DHT22;2632;51.666;7.146;2022-09-09T12:40:18;20.30;86.80
5226;DHT22;2632;51.666;7.146;2022-09-09T12:42:45;20.40;88.30
5226;DHT22;2632;51.666;7.146;2022-09-09T12:50:23;20.70;89.40
5226;DHT22;2632;51.666;7.146;2022-09-09T12:52:57;20.70;88.90
5226;DHT22;2632;51.666;7.146;2022-09-09T12:55:28;20.70;89.40
5226;DHT22;2632;51.666;7.146;2022-09-09T12:57:57;20.60;89.70
5226;DHT22;2632;51.666;7.146;2022-09-09T13:00:26;20.70;88.30
5226;DHT22;2632;51.666;7.146;2022-09-09T13:03:17;20.70;88.50
5226;DHT22;2632;51.666;7.146;2022-09-09T13:05:45;20.60;88.50
5226;DHT22;2632;51.666;7.146;2022-09-09T13:08:14;20.60;88.40
5226;DHT22;2632;51.666;7.146;2022-09-09T13:10:47;20.60;90.20
5226;DHT22;2632;51.666;7.146;2022-09-09T13:13:23;20.60;89.50
5226;DHT22;2632;51.666;7.146;2022-09-09T13:15:55;20.60;89.40
5226;DHT22;2632;51.666;7.146;2022-09-09T13:18:24;20.60;88.30
5226;DHT22;2632;51.666;7.146;2022-09-09T13:20:53;20.70;88.50
5226;DHT22;2632;51.666;7.146;2022-09-09T13:23:20;20.40;89.50
5226;DHT22;2632;51.666;7.146;2022-09-09T13:25:59;20.10;90.10
5226;DHT22;2632;51.666;7.146;2022-09-09T13:28:29;20.10;90.90
5226;DHT22;2632;51.666;7.146;2022-09-09T13:31:04;19.90;90.70
5226;DHT22;2632;51.666;7.146;2022-09-09T13:36:06;19.60;91.60
5226;DHT22;2632;51.666;7.146;2022-09-09T13:38:57;19.50;91.30
5226;DHT22;2632;51.666;7.146;2022-09-09T13:43:56;19.50;91.70
5226;DHT22;2632;51.666;7.146;2022-09-09T13:49:19;19.50;92.30
5226;DHT22;2632;51.666;7.146;2022-09-09T13:51:48;19.70;92.40
5226;DHT22;2632;51.666;7.146;2022-09-09T13:54:19;19.80;92.20
5226;DHT22;2632;51.666;7.146;2022-09-09T13:56:46;19.40;92.50
5226;DHT22;2632;51.666;7.146;2022-09-09T13:59:18;19.40;92.70
5226;DHT22;2632;51.666;7.146;2022-09-09T14:01:46;19.30;93.30
5226;DHT22;2632;51.666;7.146;2022-09-09T14:04:13;19.50;93.10
5226;DHT22;2632;51.666;7.146;2022-09-09T14:06:39;19.40;92.60
5226;DHT22;2632;51.666;7.146;2022-09-09T14:09:11;19.80;92.70
5226;DHT22;2632;51.666;7.146;2022-09-09T14:11:38;19.90;92.40
5226;DHT22;2632;51.666;7.146;2022-09-09T14:14:05;19.60;92.20
5226;DHT22;2632;51.666;7.146;2022-09-09T14:16:31;19.60;92.40
5226;DHT22;2632;51.666;7.146;2022-09-09T14:18:59;19.60;92.40
5226;DHT22;2632;51.666;7.146;2022-09-09T14:21:27;19.70;92.90
5226;DHT22;2632;51.666;7.146;2022-09-09T14:23:54;19.90;92.40
5226;DHT22;2632;51.666;7.146;2022-09-09T14:26:21;19.80;92.60
5226;DHT22;2632;51.666;7.146;2022-09-09T14:28:48;20.10;92.40
5226;DHT22;2632;51.666;7.146;2022-09-09T14:31:21;20.20;93.60
5226;DHT22;2632;51.666;7.146;2022-09-09T14:33:48;20.10;92.70
5226;DHT22;2632;51.666;7.146;2022-09-09T14:36:16;20.40;93.00
5226;DHT22;2632;51.666;7.146;2022-09-09T14:38:43;20.40;92.30
5226;DHT22;2632;51.666;7.146;2022-09-09T14:41:12;20.20;92.30
5226;DHT22;2632;51.666;7.146;2022-09-09T14:43:39;20.20;91.80
5226;DHT22;2632;51.666;7.146;2022-09-09T14:46:07;20.30;93.60
5226;DHT22;2632;51.666;7.146;2022-09-09T14:48:35;20.30;91.40
5226;DHT22;2632;51.666;7.146;2022-09-09T14:51:18;20.30;91.60
5226;DHT22;2632;51.666;7.146;2022-09-09T14:53:46;20.20;91.20
5226;DHT22;2632;51.666;7.146;2022-09-09T14:56:18;20.10;90.90
5226;DHT22;2632;51.666;7.146;2022-09-09T14:58:45;20.10;91.00
5226;DHT22;2632;51.666;7.146;2022-09-09T15:01:15;20.10;91.20
5226;DHT22;2632;51.666;7.146;2022-09-09T15:03:48;20.10;91.60
5226;DHT22;2632;51.666;7.146;2022-09-09T15:06:15;20.00;91.20
5226;DHT22;2632;51.666;7.146;2022-09-09T15:08:43;20.50;91.50
5226;DHT22;2632;51.666;7.146;2022-09-09T15:13:39;20.00;91.60
5226;DHT22;2632;51.666;7.146;2022-09-09T15:16:15;19.90;92.20
5226;DHT22;2632;51.666;7.146;2022-09-09T15:26:08;19.70;93.70
5226;DHT22;2632;51.666;7.146;2022-09-09T15:31:11;19.40;94.20
5226;DHT22;2632;51.666;7.146;2022-09-09T15:33:41;19.50;94.50
5226;DHT22;2632;51.666;7.146;2022-09-09T15:38:41;18.70;93.30
5226;DHT22;2632;51.666;7.146;2022-09-09T15:41:07;18.80;93.30
5226;DHT22;2632;51.666;7.146;2022-09-09T15:43:34;18.80;94.30
5226;DHT22;2632;51.666;7.146;2022-09-09T15:48:44;18.60;93.50
5226;DHT22;2632;51.666;7.146;2022-09-09T15:54:01;18.60;93.10
5226;DHT22;2632;51.666;7.146;2022-09-09T16:01:27;18.60;94.70
5226;DHT22;2632;51.666;7.146;2022-09-09T16:03:54;19.10;93.90
5226;DHT22;2632;51.666;7.146;2022-09-09T16:06:22;18.70;93.30
5226;DHT22;2632;51.666;7.146;2022-09-09T16:11:19;18.50;93.60
5226;DHT22;2632;51.666;7.146;2022-09-09T16:16:18;18.60;93.50
5226;DHT22;2632;51.666;7.146;2022-09-09T16:18:48;19.00;94.30
5226;DHT22;2632;51.666;7.146;2022-09-09T16:21:20;18.70;93.10
5226;DHT22;2632;51.666;7.146;2022-09-09T16:23:47;18.70;92.80
5226;DHT22;2632;51.666;7.146;2022-09-09T16:26:17;18.80;92.90
5226;DHT22;2632;51.666;7.146;2022-09-09T16:28:43;18.90;94.00
5226;DHT22;2632;51.666;7.146;2022-09-09T16:31:18;18.40;93.40
5226;DHT22;2632;51.666;7.146;2022-09-09T16:33:46;18.50;93.90
5226;DHT22;2632;51.666;7.146;2022-09-09T16:36:15;18.60;93.40
5226;DHT22;2632;51.666;7.146;2022-09-09T16:38:43;18.70;93.70
5226;DHT22;2632;51.666;7.146;2022-09-09T16:41:11;18.60;93.90
5226;DHT22;2632;51.666;7.146;2022-09-09T16:43:38;18.80;93.40
5226;DHT22;2632;51.666;7.146;2022-09-09T16:46:16;18.50;93.70
5226;DHT22;2632;51.666;7.146;2022-09-09T16:48:44;18.80;95.50
5226;DHT22;2632;51.666;7.146;2022-09-09T16:51:17;18.50;94.20
5226;DHT22;2632;51.666;7.146;2022-09-09T16:53:44;18.70;93.60
5226;DHT22;2632;51.666;7.146;2022-09-09T16:56:14;18.90;93.70
5226;DHT22;2632;51.666;7.146;2022-09-09T16:58:42;19.00;95.60
5226;DHT22;2632;51.666;7.146;2022-09-09T17:01:12;18.70;96.10
5226;DHT22;2632;51.666;7.146;2022-09-09T17:03:40;18.90;93.50
5226;DHT22;2632;51.666;7.146;2022-09-09T17:06:12;18.90;93.40
5226;DHT22;2632;51.666;7.146;2022-09-09T17:08:39;19.10;94.00
5226;DHT22;2632;51.666;7.146;2022-09-09T17:11:12;18.70;93.30
5226;DHT22;2632;51.666;7.146;2022-09-09T17:13:43;18.80;93.20
5226;DHT22;2632;51.666;7.146;2022-09-09T17:16:11;18.50;93.30
5226;DHT22;2632;51.666;7.146;2022-09-09T17:21:09;18.70;94.40
5226;DHT22;2632;51.666;7.146;2022-09-09T17:23:36;18.50;93.40
5226;DHT22;2632;51.666;7.146;2022-09-09T17:26:05;18.60;93.40
5226;DHT22;2632;51.666;7.146;2022-09-09T17:28:35;18.60;96.70
5226;DHT22;2632;51.666;7.146;2022-09-09T17:33:41;18.60;93.30
5226;DHT22;2632;51.666;7.146;2022-09-09T17:36:28;18.80;93.90
5226;DHT22;2632;51.666;7.146;2022-09-09T17:38:55;18.70;96.40
5226;DHT22;2632;51.666;7.146;2022-09-09T17:41:24;18.20;94.00
5226;DHT22;2632;51.666;7.146;2022-09-09T17:46:23;18.80;93.60
5226;DHT22;2632;51.666;7.146;2022-09-09T17:48:54;18.60;93.40
5226;DHT22;2632;51.666;7.146;2022-09-09T17:51:23;18.60;93.50
5226;DHT22;2632;51.666;7.146;2022-09-09T17:53:52;18.60;93.70
5226;DHT22;2632;51.666;7.146;2022-09-09T17:56:23;18.70;94.00
5226;DHT22;2632;51.666;7.146;2022-09-09T17:58:52;18.30;93.90
5226;DHT22;2632;51.666;7.146;2022-09-09T18:01:22;18.50;93.70
5226;DHT22;2632;51.666;7.146;2022-09-09T18:03:50;18.20;94.30
5226;DHT22;2632;51.666;7.146;2022-09-09T18:06:19;18.60;94.90
5226;DHT22;2632;51.666;7.146;2022-09-09T18:08:52;18.50;94.70
5226;DHT22;2632;51.666;7.146;2022-09-09T18:11:21;18.60;94.20
5226;DHT22;2632;51.666;7.146;2022-09-09T18:13:53;18.70;95.20
5226;DHT22;2632;51.666;7.146;2022-09-09T18:16:22;18.80;93.80
5226;DHT22;2632;51.666;7.146;2022-09-09T18:18:50;18.60;93.90
5226;DHT22;2632;51.666;7.146;2022-09-09T18:21:19;18.60;93.90
5226;DHT22;2632;51.666;7.146;2022-09-09T18:23:46;19.00;95.40
5226;DHT22;2632;51.666;7.146;2022-09-09T18:26:20;18.70;93.80
5226;DHT22;2632;51.666;7.146;2022-09-09T18:28:49;18.70;93.80
5226;DHT22;2632;51.666;7.146;2022-09-09T18:31:19;18.70;93.70
5226;DHT22;2632;51.666;7.146;2022-09-09T18:33:47;18.60;94.20
5226;DHT22;2632;51.666;7.146;2022-09-09T18:36:21;18.50;95.90
5226;DHT22;2632;51.666;7.146;2022-09-09T18:38:48;18.90;95.00
5226;DHT22;2632;51.666;7.146;2022-09-09T18:43:43;18.50;95.10
5226;DHT22;2632;51.666;7.146;2022-09-09T18:46:11;18.80;95.00
5226;DHT22;2632;51.666;7.146;2022-09-09T18:48:38;18.40;94.80
5226;DHT22;2632;51.666;7.146;2022-09-09T18:51:07;18.40;94.80
5226;DHT22;2632;51.666;7.146;2022-09-09T18:53:35;18.60;96.80
5226;DHT22;2632;51.666;7.146;2022-09-09T18:56:04;18.60;94.80
5226;DHT22;2632;51.666;7.146;2022-09-09T18:58:33;18.60;94.90
5226;DHT22;2632;51.666;7.146;2022-09-09T19:03:29;18.30;95.60
5226;DHT22;2632;51.666;7.146;2022-09-09T19:06:10;18.50;95.00
5226;DHT22;2632;51.666;7.146;2022-09-09T19:08:39;18.60;94.90
5226;DHT22;2632;51.666;7.146;2022-09-09T19:11:08;18.60;94.70
5226;DHT22;2632;51.666;7.146;2022-09-09T19:13:36;18.90;94.70
5226;DHT22;2632;51.666;7.146;2022-09-09T19:16:11;18.90;95.60
5226;DHT22;2632;51.666;7.146;2022-09-09T19:21:14;18.60;94.40
5226;DHT22;2632;51.666;7.146;2022-09-09T19:23:48;18.40;94.80
5226;DHT22;2632;51.666;7.146;2022-09-09T19:26:14;18.40;96.10
5226;DHT22;2632;51.666;7.146;2022-09-09T19:28:44;18.90;96.00
5226;DHT22;2632;51.666;7.146;2022-09-09T19:31:13;18.50;94.90
5226;DHT22;2632;51.666;7.146;2022-09-09T19:33:44;18.60;94.70
5226;DHT22;2632;51.666;7.146;2022-09-09T19:36:14;18.70;96.00